Terminal Aerodrome Forecast
Issued by NWS Mt. Holly, NJ

Home | Current Version | Previous Version | Text Only | Print | Product List | Glossary On
Versions: 1 2 3 4 5 6 7 8 9 10 11 12 13 14 15 16 17 18 19 20 21 22 23 24 25 26
422
FTUS41 KPHI 221431 AAA
TAFPHL
TAF AMD
KPHL 221431Z 2215/2318 22010KT P6SM SCT015 BKN250
     FM221700 22012G22KT P6SM SCT040 SCT250
     FM230100 23007KT P6SM BKN070 PROB30 2303/2309 4SM -TSRA
      OVC035CB
     FM230900 27007KT P6SM BKN050
     FM231400 33010KT P6SM BKN050=

USA.gov is the U.S. government's official web portal to all federal, state and local government web resources and services.